createdAt,value
2023-02-13T00:00:50.055Z,37.10
2023-02-13T00:03:16.917Z,37.60
2023-02-13T00:05:43.620Z,39.38
2023-02-13T00:08:13.312Z,39.10
2023-02-13T00:10:41.643Z,40.17
2023-02-13T00:13:08.521Z,38.70
2023-02-13T00:15:35.377Z,36.17
2023-02-13T00:18:02.478Z,36.08
2023-02-13T00:20:31.764Z,34.88
2023-02-13T00:22:58.474Z,35.45
2023-02-13T00:25:25.184Z,35.15
2023-02-13T00:27:52.148Z,31.95
2023-02-13T00:30:18.910Z,32.72
2023-02-13T00:32:45.771Z,31.58
2023-02-13T00:35:12.461Z,31.63
2023-02-13T00:37:39.173Z,30.95
2023-02-13T00:40:05.862Z,30.65
2023-02-13T00:42:32.550Z,29.63
2023-02-13T00:44:59.290Z,30.23
2023-02-13T00:47:26.090Z,30.80
2023-02-13T00:49:52.807Z,30.23
2023-02-13T00:52:19.630Z,31.52
2023-02-13T00:54:47.788Z,30.77
2023-02-13T00:57:14.562Z,31.48
2023-02-13T00:59:42.482Z,31.58
2023-02-13T01:02:09.204Z,30.45
2023-02-13T01:04:35.938Z,29.17
2023-02-13T01:07:02.669Z,29.38
2023-02-13T01:09:29.348Z,26.88
2023-02-13T01:11:56.093Z,27.55
2023-02-13T01:14:22.815Z,28.70
2023-02-13T01:16:49.524Z,26.98
2023-02-13T01:19:16.251Z,27.65
2023-02-13T01:21:43.007Z,26.88
2023-02-13T01:24:09.801Z,26.42
2023-02-13T01:26:36.484Z,25.85
2023-02-13T01:29:03.215Z,23.85
2023-02-13T01:31:30.015Z,24.25
2023-02-13T01:33:56.849Z,23.08
2023-02-13T01:36:23.582Z,23.50
2023-02-13T01:38:50.292Z,23.60
2023-02-13T01:41:16.982Z,23.52
2023-02-13T01:43:43.721Z,22.83
2023-02-13T01:46:11.267Z,24.08
2023-02-13T01:48:37.970Z,23.15
2023-02-13T01:51:04.666Z,21.63
2023-02-13T01:53:31.371Z,22.42
2023-02-13T01:55:58.805Z,22.08
2023-02-13T01:58:26.145Z,22.73
2023-02-13T02:00:53.154Z,22.15
2023-02-13T02:03:19.888Z,22.50
2023-02-13T02:05:50.868Z,23.15
2023-02-13T02:08:17.608Z,24.27
2023-02-13T02:10:44.390Z,23.63
2023-02-13T02:13:11.116Z,22.83
2023-02-13T02:15:39.561Z,22.95
2023-02-13T02:18:06.318Z,23.08
2023-02-13T02:20:33.029Z,23.83
2023-02-13T02:22:59.815Z,22.98
2023-02-13T02:25:28.176Z,23.60
2023-02-13T02:27:55.427Z,23.90
2023-02-13T02:30:24.841Z,23.30
2023-02-13T02:32:51.625Z,24.83
2023-02-13T02:35:18.425Z,24.40
2023-02-13T02:37:45.318Z,24.05
2023-02-13T02:40:12.205Z,23.98
2023-02-13T02:42:38.966Z,24.33
2023-02-13T02:45:06.805Z,23.85
2023-02-13T02:47:52.348Z,24.80
2023-02-13T02:50:20.415Z,25.02
2023-02-13T02:52:47.149Z,25.85
2023-02-13T02:55:14.823Z,23.70
2023-02-13T02:58:08.449Z,25.52
2023-02-13T03:00:54.123Z,24.83
2023-02-13T03:03:39.835Z,24.90
2023-02-13T03:06:13.939Z,24.70
2023-02-13T03:08:59.492Z,26.52
2023-02-13T03:11:45.083Z,25.10
2023-02-13T03:14:11.873Z,24.40
2023-02-13T03:16:58.336Z,23.98
2023-02-13T03:19:43.786Z,26.00
2023-02-13T03:22:19.333Z,26.38
2023-02-13T03:24:46.041Z,24.70
2023-02-13T03:27:12.847Z,25.83
2023-02-13T03:29:58.650Z,26.45
2023-02-13T03:32:25.342Z,25.77
2023-02-13T03:35:11.006Z,25.40
2023-02-13T03:37:56.140Z,24.65
2023-02-13T03:40:22.879Z,25.73
2023-02-13T03:42:49.561Z,26.23
2023-02-13T03:45:35.093Z,27.35
2023-02-13T03:48:09.602Z,25.73
2023-02-13T03:50:36.342Z,25.50
2023-02-13T03:53:03.047Z,25.15
2023-02-13T03:55:48.759Z,25.35
2023-02-13T03:58:34.335Z,24.05
2023-02-13T04:01:01.233Z,25.75
2023-02-13T04:03:28.042Z,25.48
2023-02-13T04:05:54.735Z,25.92
2023-02-13T04:08:21.473Z,24.73
2023-02-13T04:10:48.174Z,25.50
2023-02-13T04:13:14.923Z,25.52
2023-02-13T04:15:41.621Z,24.60
2023-02-13T04:18:10.526Z,26.67
2023-02-13T04:20:37.452Z,24.52
2023-02-13T04:23:04.158Z,26.02
2023-02-13T04:25:30.861Z,25.95
2023-02-13T04:27:57.575Z,25.92
2023-02-13T04:30:24.373Z,25.42
2023-02-13T04:32:52.895Z,25.70
2023-02-13T04:35:19.627Z,24.40
2023-02-13T04:37:46.338Z,25.08
2023-02-13T04:40:13.029Z,25.67
2023-02-13T04:42:39.740Z,24.85
2023-02-13T04:45:06.473Z,25.50
2023-02-13T04:47:33.185Z,25.90
2023-02-13T04:49:59.958Z,27.00
2023-02-13T04:52:26.618Z,26.45
2023-02-13T04:54:54.224Z,25.75
2023-02-13T04:57:20.990Z,26.10
2023-02-13T04:59:47.713Z,25.85
2023-02-13T05:02:14.484Z,25.85
2023-02-13T05:04:41.180Z,26.85
2023-02-13T05:07:07.992Z,26.88
2023-02-13T05:09:34.669Z,25.35
2023-02-13T05:12:01.980Z,26.83
2023-02-13T05:14:28.902Z,25.75
2023-02-13T05:16:55.657Z,25.92
2023-02-13T05:19:22.398Z,25.83
2023-02-13T05:22:07.575Z,26.20
2023-02-13T05:24:34.383Z,26.57
2023-02-13T05:27:01.071Z,24.95
2023-02-13T05:29:27.777Z,26.60
2023-02-13T05:31:54.647Z,24.48
2023-02-13T05:34:21.504Z,23.88
2023-02-13T05:36:48.244Z,25.85
2023-02-13T05:39:15.405Z,26.35
2023-02-13T05:41:42.210Z,25.02
2023-02-13T05:44:08.936Z,24.83
2023-02-13T05:46:35.616Z,24.80
2023-02-13T05:49:04.808Z,25.83
2023-02-13T05:51:31.621Z,24.42
2023-02-13T05:53:58.347Z,25.52
2023-02-13T05:56:25.140Z,25.38
2023-02-13T05:58:51.850Z,25.13
2023-02-13T06:01:18.563Z,24.33
2023-02-13T06:03:45.304Z,25.30
2023-02-13T06:06:12.020Z,27.30
2023-02-13T06:08:38.710Z,26.25
2023-02-13T06:11:05.415Z,26.42
2023-02-13T06:13:32.101Z,24.73
2023-02-13T06:15:58.853Z,27.08
2023-02-13T06:18:25.570Z,27.00
2023-02-13T06:20:52.298Z,27.85
2023-02-13T06:23:19.064Z,26.13
2023-02-13T06:25:45.770Z,26.50
2023-02-13T06:28:12.601Z,27.77
2023-02-13T06:30:39.363Z,28.35
2023-02-13T06:33:06.154Z,27.05
2023-02-13T06:35:32.844Z,28.48
2023-02-13T06:37:59.658Z,29.35
2023-02-13T06:40:26.439Z,29.05
2023-02-13T06:42:53.181Z,30.33
2023-02-13T06:45:19.883Z,29.20
2023-02-13T06:47:46.662Z,29.40
2023-02-13T06:50:13.334Z,28.08
2023-02-13T06:52:40.061Z,28.85
2023-02-13T06:55:06.821Z,27.70
2023-02-13T06:57:33.851Z,27.00
2023-02-13T07:00:00.541Z,27.92
2023-02-13T07:02:27.335Z,27.73
2023-02-13T07:04:54.052Z,28.02
2023-02-13T07:07:20.815Z,28.92
2023-02-13T07:09:47.503Z,28.05
2023-02-13T07:12:14.273Z,28.55
2023-02-13T07:14:40.937Z,29.75
2023-02-13T07:17:07.681Z,28.83
2023-02-13T07:19:34.368Z,28.70
2023-02-13T07:22:01.178Z,28.33
2023-02-13T07:24:27.856Z,30.63
2023-02-13T07:26:54.650Z,30.40
2023-02-13T07:29:21.328Z,30.48
2023-02-13T07:31:48.127Z,29.02
2023-02-13T07:34:14.896Z,30.15
2023-02-13T07:36:41.615Z,29.58
2023-02-13T07:39:08.311Z,31.60
2023-02-13T07:41:35.028Z,29.70
2023-02-13T07:44:01.704Z,60.20
2023-02-13T07:46:28.442Z,36.40
2023-02-13T07:48:55.202Z,32.03
2023-02-13T07:51:25.374Z,31.33
2023-02-13T07:53:52.419Z,33.00
2023-02-13T07:56:19.078Z,32.15
2023-02-13T07:58:45.824Z,32.58
2023-02-13T08:01:12.512Z,31.38
2023-02-13T08:03:39.271Z,30.58
2023-02-13T08:06:05.997Z,31.33
2023-02-13T08:08:32.776Z,31.80
2023-02-13T08:11:18.112Z,31.13
2023-02-13T08:13:44.856Z,34.90
2023-02-13T08:16:11.624Z,34.58
2023-02-13T08:18:38.478Z,34.70
2023-02-13T08:21:05.140Z,33.58
2023-02-13T08:23:31.909Z,34.00
2023-02-13T08:25:58.846Z,35.00
2023-02-13T08:28:25.821Z,34.50
2023-02-13T08:30:52.624Z,33.53
2023-02-13T08:33:19.406Z,35.17
2023-02-13T08:35:46.082Z,35.25
2023-02-13T08:38:12.862Z,35.45
2023-02-13T08:40:39.678Z,37.08
2023-02-13T08:43:06.386Z,35.00
2023-02-13T08:45:33.073Z,36.10
2023-02-13T08:47:59.811Z,36.00
2023-02-13T08:50:26.586Z,35.63
2023-02-13T08:52:53.317Z,34.55
2023-02-13T08:55:20.475Z,33.88
2023-02-13T08:57:47.187Z,34.70
2023-02-13T09:00:14.662Z,36.40
2023-02-13T09:02:41.427Z,33.83
2023-02-13T09:05:08.273Z,31.55
2023-02-13T09:07:34.974Z,32.40
2023-02-13T09:10:01.714Z,30.83
2023-02-13T09:12:28.446Z,30.65
2023-02-13T09:14:55.170Z,30.52
2023-02-13T09:17:21.900Z,30.13
2023-02-13T09:19:48.626Z,29.25
2023-02-13T09:22:17.185Z,30.25
2023-02-13T09:24:43.933Z,29.70
2023-02-13T09:27:10.636Z,28.80
2023-02-13T09:29:37.674Z,59.10
2023-02-13T09:32:04.483Z,32.25
2023-02-13T09:34:31.187Z,31.23
2023-02-13T09:36:57.948Z,37.03
2023-02-13T09:39:24.649Z,28.50
2023-02-13T09:41:51.392Z,27.45
2023-02-13T09:44:38.763Z,26.25
2023-02-13T09:47:06.035Z,25.52
2023-02-13T09:49:32.719Z,24.45
2023-02-13T09:51:59.434Z,24.33
2023-02-13T09:54:27.309Z,23.45
2023-02-13T09:56:55.018Z,24.90
2023-02-13T09:59:21.763Z,23.50
2023-02-13T10:01:48.574Z,23.00
2023-02-13T10:04:15.331Z,21.77
2023-02-13T10:06:50.036Z,22.38
2023-02-13T10:09:16.960Z,23.30
2023-02-13T10:11:43.690Z,21.65
2023-02-13T10:14:10.483Z,22.98
2023-02-13T10:16:37.207Z,22.23
2023-02-13T10:19:03.943Z,20.85
2023-02-13T10:21:30.696Z,20.75
2023-02-13T10:23:57.421Z,21.52
2023-02-13T10:26:24.177Z,21.25
2023-02-13T10:29:10.830Z,19.90
2023-02-13T10:31:37.691Z,19.75
2023-02-13T10:34:04.467Z,21.48
2023-02-13T10:36:31.178Z,18.38
2023-02-13T10:38:57.995Z,20.20
2023-02-13T10:41:24.782Z,20.45
2023-02-13T10:43:51.515Z,19.95
2023-02-13T10:46:18.375Z,19.40
2023-02-13T10:48:45.088Z,21.20
2023-02-13T10:51:13.298Z,18.58
2023-02-13T10:53:40.388Z,18.83
2023-02-13T10:56:07.149Z,18.90
2023-02-13T10:58:33.910Z,18.38
2023-02-13T11:01:00.675Z,18.13
2023-02-13T11:03:27.379Z,18.08
2023-02-13T11:05:54.101Z,18.80
2023-02-13T11:08:21.045Z,19.67
2023-02-13T11:10:47.751Z,18.45
2023-02-13T11:13:14.492Z,18.88
2023-02-13T11:15:41.238Z,18.08
2023-02-13T11:18:08.031Z,18.75
2023-02-13T11:20:34.867Z,17.67
2023-02-13T11:23:01.546Z,19.30
2023-02-13T11:25:31.358Z,18.88
2023-02-13T11:27:58.163Z,18.45
2023-02-13T11:30:24.875Z,18.67
2023-02-13T11:32:51.574Z,19.77
2023-02-13T11:35:18.286Z,18.33
2023-02-13T11:37:45.115Z,17.95
2023-02-13T11:40:11.922Z,18.20
2023-02-13T11:42:38.729Z,17.90
2023-02-13T11:45:05.485Z,17.95
2023-02-13T11:47:32.263Z,25.60
2023-02-13T11:49:59.008Z,19.33
2023-02-13T11:52:25.753Z,18.80
2023-02-13T11:54:52.670Z,18.50
2023-02-13T11:57:19.363Z,20.52
2023-02-13T11:59:46.036Z,18.90
2023-02-13T12:02:12.881Z,55.85
2023-02-13T12:04:39.580Z,19.17
2023-02-13T12:07:06.310Z,18.83
2023-02-13T12:09:33.117Z,18.75
2023-02-13T12:11:59.884Z,18.73
2023-02-13T12:14:26.606Z,18.95
2023-02-13T12:16:53.398Z,18.83
2023-02-13T12:19:20.130Z,19.27
2023-02-13T12:21:46.925Z,19.77
2023-02-13T12:24:13.740Z,19.13
2023-02-13T12:26:40.763Z,17.30
2023-02-13T12:29:07.833Z,19.38
2023-02-13T12:31:34.588Z,18.58
2023-02-13T12:34:01.393Z,19.48
2023-02-13T12:36:28.116Z,19.98
2023-02-13T12:38:54.830Z,19.65
2023-02-13T12:41:21.667Z,20.23
2023-02-13T12:43:48.373Z,20.25
2023-02-13T12:46:15.132Z,20.52
2023-02-13T12:48:41.927Z,20.40
2023-02-13T12:51:08.672Z,20.42
2023-02-13T12:53:35.398Z,19.98
2023-02-13T12:56:02.097Z,20.40
2023-02-13T12:58:28.810Z,20.55
2023-02-13T13:00:55.665Z,18.75
2023-02-13T13:03:22.637Z,18.80
2023-02-13T13:05:58.718Z,18.83
2023-02-13T13:08:30.208Z,17.58
2023-02-13T13:10:57.089Z,18.83
2023-02-13T13:13:23.940Z,17.30
2023-02-13T13:15:50.664Z,18.85
2023-02-13T13:18:17.448Z,18.30
2023-02-13T13:20:44.177Z,18.45
2023-02-13T13:23:10.873Z,18.80
2023-02-13T13:25:37.639Z,19.60
2023-02-13T13:28:04.375Z,21.10
2023-02-13T13:30:32.295Z,18.50
2023-02-13T13:33:00.563Z,17.92
2023-02-13T13:35:27.353Z,17.08
2023-02-13T13:38:02.621Z,17.13
2023-02-13T13:40:29.488Z,18.05
2023-02-13T13:42:56.155Z,17.80
2023-02-13T13:45:22.956Z,20.17
2023-02-13T13:47:49.701Z,18.40
2023-02-13T13:50:16.417Z,18.13
2023-02-13T13:52:43.160Z,18.65
2023-02-13T13:55:09.882Z,16.67
2023-02-13T13:57:36.527Z,17.33
2023-02-13T14:00:03.691Z,18.30
2023-02-13T14:02:32.222Z,15.93
2023-02-13T14:04:58.964Z,16.90
2023-02-13T14:07:25.801Z,16.00
2023-02-13T14:09:52.508Z,17.10
2023-02-13T14:12:19.246Z,15.88
2023-02-13T14:14:46.098Z,14.63
2023-02-13T14:17:14.048Z,18.42
2023-02-13T14:19:40.820Z,15.68
2023-02-13T14:22:07.602Z,15.43
2023-02-13T14:24:36.063Z,15.63
2023-02-13T14:27:06.260Z,14.82
2023-02-13T14:29:33.271Z,14.93
2023-02-13T14:32:00.685Z,14.88
2023-02-13T14:34:29.034Z,15.85
2023-02-13T14:36:55.746Z,15.52
2023-02-13T14:39:22.451Z,15.68
2023-02-13T14:41:49.425Z,16.15
2023-02-13T14:44:16.173Z,18.40
2023-02-13T14:46:44.576Z,15.38
2023-02-13T14:49:11.324Z,17.23
2023-02-13T14:51:38.130Z,16.40
2023-02-13T14:54:05.067Z,16.60
2023-02-13T14:56:31.997Z,15.95
2023-02-13T14:58:59.686Z,16.65
2023-02-13T15:01:26.482Z,17.25
2023-02-13T15:03:56.353Z,17.70
2023-02-13T15:06:23.156Z,17.20
2023-02-13T15:08:49.847Z,17.23
2023-02-13T15:11:35.869Z,17.67
2023-02-13T15:14:02.633Z,17.30
2023-02-13T15:16:29.306Z,16.48
2023-02-13T15:18:56.113Z,17.70
2023-02-13T15:21:22.916Z,16.50
2023-02-13T15:23:49.608Z,17.50
2023-02-13T15:26:16.349Z,17.77
2023-02-13T15:28:43.071Z,17.40
2023-02-13T15:31:10.299Z,16.15
2023-02-13T15:33:38.436Z,16.85
2023-02-13T15:36:05.287Z,16.80
2023-02-13T15:38:32.063Z,17.35
2023-02-13T15:40:59.060Z,17.50
2023-02-13T15:43:26.000Z,18.63
2023-02-13T15:45:52.765Z,20.08
2023-02-13T15:48:19.471Z,19.98
2023-02-13T15:50:47.661Z,19.27
2023-02-13T15:53:14.432Z,21.48
2023-02-13T15:55:41.122Z,19.50
2023-02-13T15:58:07.929Z,19.05
2023-02-13T16:00:34.625Z,19.05
2023-02-13T16:03:01.412Z,18.92
2023-02-13T16:05:39.591Z,19.40
2023-02-13T16:08:07.076Z,18.80
2023-02-13T16:10:33.805Z,18.83
2023-02-13T16:13:00.695Z,19.45
2023-02-13T16:15:27.891Z,18.20
2023-02-13T16:17:54.672Z,18.50
2023-02-13T16:20:21.691Z,20.67
2023-02-13T16:22:48.416Z,19.67
2023-02-13T16:25:15.229Z,20.05
2023-02-13T16:27:41.927Z,21.02
2023-02-13T16:30:08.799Z,20.17
2023-02-13T16:32:38.211Z,21.98
2023-02-13T16:35:04.908Z,21.48
2023-02-13T16:37:31.669Z,21.40
2023-02-13T16:39:58.471Z,21.02
2023-02-13T16:42:25.243Z,20.60
2023-02-13T16:44:51.966Z,20.55
2023-02-13T16:47:18.812Z,21.50
2023-02-13T16:49:45.634Z,22.23
2023-02-13T16:52:12.621Z,21.58
2023-02-13T16:54:39.460Z,23.17
2023-02-13T16:57:06.308Z,21.83
2023-02-13T16:59:33.018Z,22.60
2023-02-13T17:01:59.746Z,22.52
2023-02-13T17:04:26.599Z,22.60
2023-02-13T17:06:53.481Z,22.20
2023-02-13T17:09:20.441Z,22.27
2023-02-13T17:11:47.173Z,22.52
2023-02-13T17:14:13.910Z,22.40
2023-02-13T17:16:40.931Z,22.38
2023-02-13T17:19:07.625Z,22.20
2023-02-13T17:21:34.349Z,22.50
2023-02-13T17:24:01.088Z,24.10
2023-02-13T17:26:27.799Z,23.90
2023-02-13T17:28:54.538Z,23.58
2023-02-13T17:31:21.282Z,23.73
2023-02-13T17:33:48.052Z,23.83
2023-02-13T17:36:14.754Z,27.38
2023-02-13T17:38:41.565Z,26.85
2023-02-13T17:41:08.256Z,25.10
2023-02-13T17:43:35.085Z,25.13
2023-02-13T17:46:01.800Z,26.35
2023-02-13T17:48:28.624Z,28.17
2023-02-13T17:50:55.364Z,26.63
2023-02-13T17:53:22.090Z,29.40
2023-02-13T17:55:48.794Z,25.48
2023-02-13T17:58:15.489Z,26.45
2023-02-13T18:00:42.252Z,26.33
2023-02-13T18:03:08.979Z,24.58
2023-02-13T18:05:35.724Z,26.05
2023-02-13T18:08:02.819Z,25.25
2023-02-13T18:10:29.511Z,24.90
2023-02-13T18:12:57.115Z,25.23
2023-02-13T18:15:24.423Z,26.00
2023-02-13T18:17:51.116Z,24.73
2023-02-13T18:20:17.946Z,26.20
2023-02-13T18:22:44.678Z,26.02
2023-02-13T18:25:11.449Z,24.58
2023-02-13T18:27:38.130Z,25.17
2023-02-13T18:30:04.978Z,25.30
2023-02-13T18:32:31.706Z,25.42
2023-02-13T18:34:58.402Z,25.95
2023-02-13T18:37:27.931Z,26.08
2023-02-13T18:39:54.605Z,26.42
2023-02-13T18:42:21.321Z,26.25
2023-02-13T18:44:48.070Z,26.98
2023-02-13T18:47:14.830Z,27.45
2023-02-13T18:49:41.604Z,29.05
2023-02-13T18:52:08.450Z,27.88
2023-02-13T18:54:35.436Z,28.02
2023-02-13T18:57:02.199Z,27.75
2023-02-13T18:59:28.914Z,29.00
2023-02-13T19:01:55.713Z,27.95
2023-02-13T19:04:22.469Z,30.42
2023-02-13T19:06:49.142Z,28.63
2023-02-13T19:09:15.964Z,30.42
2023-02-13T19:11:44.409Z,30.90
2023-02-13T19:14:11.169Z,29.27
2023-02-13T19:16:37.867Z,32.42
2023-02-13T19:19:04.628Z,32.65
2023-02-13T19:21:31.583Z,33.28
2023-02-13T19:23:58.622Z,34.22
2023-02-13T19:26:25.322Z,32.92
2023-02-13T19:28:52.048Z,36.72
2023-02-13T19:31:18.947Z,35.72
2023-02-13T19:33:45.819Z,34.80
2023-02-13T19:36:12.554Z,33.58
2023-02-13T19:38:39.326Z,36.40
2023-02-13T19:41:08.363Z,34.28
2023-02-13T19:43:35.109Z,33.15
2023-02-13T19:46:02.018Z,34.63
2023-02-13T19:48:28.957Z,33.10
2023-02-13T19:50:55.695Z,35.58
2023-02-13T19:53:22.411Z,33.78
2023-02-13T19:55:49.202Z,34.42
2023-02-13T19:58:15.852Z,36.53
2023-02-13T20:00:42.583Z,35.38
2023-02-13T20:03:09.352Z,35.60
2023-02-13T20:05:36.059Z,34.17
2023-02-13T20:08:02.855Z,35.22
2023-02-13T20:10:29.681Z,35.20
2023-02-13T20:12:56.397Z,32.72
2023-02-13T20:15:23.788Z,34.00
2023-02-13T20:17:50.782Z,33.33
2023-02-13T20:20:17.578Z,32.13
2023-02-13T20:22:44.320Z,32.72
2023-02-13T20:25:11.020Z,32.80
2023-02-13T20:27:42.242Z,31.17
2023-02-13T20:30:09.891Z,30.20
2023-02-13T20:32:37.391Z,31.35
2023-02-13T20:35:04.176Z,32.47
2023-02-13T20:37:31.131Z,30.73
2023-02-13T20:39:57.844Z,32.00
2023-02-13T20:42:24.589Z,30.77
2023-02-13T20:44:51.368Z,31.02
2023-02-13T20:47:18.261Z,31.45
2023-02-13T20:49:45.350Z,28.50
2023-02-13T20:52:12.042Z,30.23
2023-02-13T20:54:39.430Z,31.15
2023-02-13T20:57:06.705Z,32.35
2023-02-13T20:59:33.605Z,30.95
2023-02-13T21:02:00.594Z,29.85
2023-02-13T21:04:29.212Z,32.28
2023-02-13T21:06:56.126Z,30.60
2023-02-13T21:09:23.260Z,31.02
2023-02-13T21:11:50.246Z,29.80
2023-02-13T21:14:17.162Z,30.27
2023-02-13T21:16:43.975Z,29.83
2023-02-13T21:19:10.753Z,29.90
2023-02-13T21:21:37.592Z,31.42
2023-02-13T21:24:05.809Z,32.38
2023-02-13T21:26:34.444Z,34.83
2023-02-13T21:29:01.435Z,34.80
2023-02-13T21:31:29.436Z,35.15
2023-02-13T21:33:56.496Z,31.58
2023-02-13T21:36:23.305Z,34.10
2023-02-13T21:38:50.135Z,34.03
2023-02-13T21:41:17.311Z,32.05
2023-02-13T21:43:46.794Z,33.80
2023-02-13T21:46:13.628Z,31.75
2023-02-13T21:48:40.756Z,33.15
2023-02-13T21:51:07.749Z,33.78
2023-02-13T21:53:34.668Z,32.05
2023-02-13T21:56:01.628Z,32.72
2023-02-13T21:58:28.502Z,34.38
2023-02-13T22:00:55.513Z,33.75
2023-02-13T22:03:22.312Z,34.17
2023-02-13T22:05:49.101Z,32.00
2023-02-13T22:08:15.828Z,33.38
2023-02-13T22:10:42.562Z,35.58
2023-02-13T22:13:09.322Z,35.03
2023-02-13T22:15:36.662Z,35.15
2023-02-13T22:18:03.417Z,35.47
2023-02-13T22:20:30.236Z,35.85
2023-02-13T22:22:56.997Z,34.15
2023-02-13T22:25:23.764Z,35.58
2023-02-13T22:27:50.523Z,35.22
2023-02-13T22:30:17.362Z,34.88
2023-02-13T22:32:44.119Z,37.40
2023-02-13T22:35:10.878Z,36.53
2023-02-13T22:37:37.804Z,38.08
2023-02-13T22:40:04.580Z,34.60
2023-02-13T22:42:31.254Z,37.17
2023-02-13T22:44:58.067Z,36.75
2023-02-13T22:47:24.824Z,36.13
2023-02-13T22:49:51.558Z,35.72
2023-02-13T22:52:18.281Z,34.78
2023-02-13T22:54:44.988Z,34.15
2023-02-13T22:57:11.720Z,37.00
2023-02-13T22:59:40.203Z,36.33
2023-02-13T23:02:07.296Z,36.85
2023-02-13T23:04:34.050Z,37.08
2023-02-13T23:07:00.852Z,38.47
2023-02-13T23:09:27.505Z,37.63
2023-02-13T23:12:13.037Z,36.95
2023-02-13T23:14:39.735Z,35.30
2023-02-13T23:17:25.509Z,39.78
2023-02-13T23:19:52.223Z,36.53
2023-02-13T23:22:18.962Z,36.63
2023-02-13T23:24:45.735Z,36.25
2023-02-13T23:27:13.050Z,35.80
2023-02-13T23:29:39.903Z,36.58
2023-02-13T23:32:06.752Z,36.08
2023-02-13T23:34:33.558Z,37.13
2023-02-13T23:37:03.432Z,36.25
2023-02-13T23:39:30.191Z,36.88
2023-02-13T23:41:57.080Z,36.80
2023-02-13T23:44:23.862Z,37.83
2023-02-13T23:46:50.546Z,37.40
2023-02-13T23:49:17.298Z,36.38
2023-02-13T23:51:44.116Z,36.35
2023-02-13T23:54:10.813Z,38.33
2023-02-13T23:56:37.544Z,36.97
2023-02-13T23:59:04.334Z,38.03
